Terminal Aerodrome Forecast
Issued by NWS Huntsville, AL

Home | Current Version | Previous Version | Text Only | Print | Product List | Glossary On
Versions: 1 2 3 4 5 6 7 8 9 10 11 12 13
000
FTUS44 KHUN 280520
TAFMSL
TAF
KMSL 280520Z 2806/2906 30010KT 5SM -TSRA BR SCT012CB OVC025
      TEMPO 2806/2808 VRB20G35KT 1SM TSRA BR OVC009CB
     FM280900 18004KT P6SM VCTS BKN020CB
     FM281400 23011KT P6SM VCTS BKN035CB
     FM281600 25012KT P6SM SCT040
     FM290100 22005KT P6SM SCT050=

USA.gov is the U.S. government's official web portal to all federal, state and local government web resources and services.